createdAt,value
2019-03-08T01:10:42.335Z,13.83
2019-03-08T01:13:13.008Z,15.83
2019-03-08T01:15:43.752Z,14.85
2019-03-08T01:18:14.388Z,13.25
2019-03-08T01:20:45.234Z,14.18
2019-03-08T01:23:15.946Z,14.28
2019-03-08T01:25:46.338Z,15.05
2019-03-08T01:28:16.886Z,14.15
2019-03-08T01:30:47.466Z,15.60
2019-03-08T01:33:18.866Z,15.05
2019-03-08T01:35:49.606Z,12.75
2019-03-08T01:38:19.990Z,13.62
2019-03-08T01:40:50.626Z,13.55
2019-03-08T01:43:21.416Z,16.45
2019-03-08T01:46:12.508Z,14.80
2019-03-08T01:49:03.509Z,14.10
2019-03-08T01:51:35.671Z,16.52
2019-03-08T01:54:06.598Z,14.03
2019-03-08T01:56:36.989Z,13.95
2019-03-08T01:59:07.555Z,12.60
2019-03-08T02:01:38.555Z,13.65
2019-03-08T02:04:09.641Z,12.47
2019-03-08T02:09:30.737Z,13.75
2019-03-08T02:12:01.368Z,12.25
2019-03-08T02:14:32.122Z,12.07
2019-03-08T02:17:03.318Z,14.05
2019-03-08T02:19:33.977Z,14.13
2019-03-08T02:22:04.711Z,15.63
2019-03-08T02:24:35.910Z,14.85
2019-03-08T02:27:06.746Z,12.80
2019-03-08T02:29:39.116Z,13.60
2019-03-08T02:32:09.546Z,15.25
2019-03-08T02:34:40.334Z,16.07
2019-03-08T02:37:10.938Z,14.55
2019-03-08T02:39:41.875Z,13.28
2019-03-08T02:42:12.535Z,12.95
2019-03-08T02:44:44.222Z,14.78
2019-03-08T02:47:15.050Z,13.15
2019-03-08T02:49:45.693Z,14.58
2019-03-08T02:52:16.439Z,17.37
2019-03-08T02:54:47.270Z,11.60
2019-03-08T02:57:17.883Z,11.57
2019-03-08T02:59:48.383Z,14.75
2019-03-08T03:02:19.194Z,14.20
2019-03-08T03:04:49.998Z,12.50
2019-03-08T03:07:20.714Z,15.30
2019-03-08T03:09:51.602Z,12.37
2019-03-08T03:12:21.986Z,18.23
2019-03-08T03:14:52.382Z,13.55
2019-03-08T03:17:23.292Z,11.88
2019-03-08T03:19:54.502Z,11.08
2019-03-08T03:22:24.910Z,13.58
2019-03-08T03:24:55.555Z,14.95
2019-03-08T03:27:29.005Z,11.18
2019-03-08T03:29:59.568Z,14.07
2019-03-08T03:32:30.883Z,14.95
2019-03-08T03:35:01.535Z,12.85
2019-03-08T03:37:32.288Z,12.82
2019-03-08T03:40:04.271Z,11.25
2019-03-08T03:53:16.977Z,12.43
2019-03-08T04:05:37.267Z,16.40
2019-03-08T04:08:07.828Z,13.60
2019-03-08T04:10:38.264Z,11.75
2019-03-08T04:13:08.730Z,13.35
2019-03-08T04:15:39.285Z,13.05
2019-03-08T04:18:09.677Z,12.60
2019-03-08T04:20:40.623Z,14.33
2019-03-08T04:23:11.174Z,11.60
2019-03-08T04:25:41.886Z,15.65
2019-03-08T04:28:12.694Z,15.38
2019-03-08T04:33:19.850Z,15.50
2019-03-08T04:35:50.676Z,12.78
2019-03-08T04:38:21.849Z,13.30
2019-03-08T04:40:52.571Z,11.33
2019-03-08T04:43:23.455Z,14.98
2019-03-08T04:45:54.103Z,10.85
2019-03-08T04:48:24.714Z,11.12
2019-03-08T04:50:55.275Z,12.20
2019-03-08T04:53:25.678Z,11.08
2019-03-08T04:55:56.405Z,12.50
2019-03-08T04:58:27.330Z,13.05
2019-03-08T05:00:58.064Z,10.63
2019-03-08T05:03:28.456Z,12.28
2019-03-08T05:06:00.761Z,11.68
2019-03-08T05:08:31.672Z,12.68
2019-03-08T05:11:02.066Z,13.68
2019-03-08T05:13:32.626Z,13.40
2019-03-08T05:16:03.678Z,15.25
2019-03-08T05:18:34.058Z,9.70
2019-03-08T05:21:04.852Z,12.23
2019-03-08T05:23:35.662Z,11.35
2019-03-08T05:26:06.048Z,11.70
2019-03-08T05:28:43.460Z,12.80
2019-03-08T05:31:14.219Z,12.00
2019-03-08T05:33:44.773Z,11.15
2019-03-08T05:36:15.266Z,12.70
2019-03-08T05:38:45.643Z,9.90
2019-03-08T05:41:17.643Z,13.60
2019-03-08T05:43:48.837Z,11.95
2019-03-08T05:46:19.321Z,12.78
2019-03-08T05:48:50.201Z,14.10
2019-03-08T05:51:20.684Z,11.63
2019-03-08T05:53:51.471Z,10.18
2019-03-08T05:56:22.022Z,10.60
2019-03-08T05:58:52.417Z,17.98
2019-03-08T06:01:22.795Z,12.88
2019-03-08T06:03:53.444Z,11.55
2019-03-08T06:06:26.039Z,10.78
2019-03-08T06:08:56.205Z,9.98
2019-03-08T06:11:26.587Z,13.58
2019-03-08T06:13:56.989Z,12.65
2019-03-08T06:16:27.820Z,12.28
2019-03-08T06:18:58.466Z,10.03
2019-03-08T06:21:29.180Z,9.80
2019-03-08T06:26:49.506Z,10.98
2019-03-08T06:29:20.181Z,12.65
2019-03-08T06:31:50.850Z,12.85
2019-03-08T06:34:24.585Z,11.73
2019-03-08T06:36:55.358Z,13.03
2019-03-08T06:39:26.173Z,12.20
2019-03-08T06:41:56.970Z,12.63
2019-03-08T06:44:27.726Z,14.87
2019-03-08T06:46:58.463Z,11.55
2019-03-08T06:49:29.355Z,13.50
2019-03-08T06:52:01.000Z,16.05
2019-03-08T06:54:31.766Z,11.88
2019-03-08T06:57:02.645Z,12.47
2019-03-08T06:59:35.027Z,10.98
2019-03-08T07:02:05.639Z,16.05
2019-03-08T07:04:36.617Z,13.00
2019-03-08T07:07:07.285Z,13.45
2019-03-08T07:09:37.882Z,13.32
2019-03-08T07:12:08.450Z,11.30
2019-03-08T07:14:38.834Z,12.95
2019-03-08T07:17:10.011Z,14.53
2019-03-08T07:19:41.934Z,10.20
2019-03-08T07:22:14.100Z,15.10
2019-03-08T07:24:52.007Z,9.93
2019-03-08T07:27:23.874Z,11.35
2019-03-08T07:30:03.125Z,9.63
2019-03-08T07:32:37.526Z,12.20
2019-03-08T07:35:16.003Z,10.32
2019-03-08T07:37:47.881Z,17.65
2019-03-08T07:40:23.243Z,11.00
2019-03-08T07:42:57.514Z,12.20
2019-03-08T07:45:35.322Z,12.98
2019-03-08T07:48:12.928Z,13.60
2019-03-08T07:50:46.890Z,11.33
2019-03-08T07:53:33.228Z,11.57
2019-03-08T07:56:08.083Z,15.05
2019-03-08T07:58:56.207Z,11.03
2019-03-08T08:01:28.234Z,9.63
2019-03-08T08:04:00.892Z,13.40
2019-03-08T08:06:39.972Z,13.05
2019-03-08T08:09:14.155Z,10.90
2019-03-08T08:11:51.997Z,13.20
2019-03-08T08:14:39.993Z,13.75
2019-03-08T08:17:14.646Z,8.80
2019-03-08T08:19:49.478Z,13.88
2019-03-08T08:22:24.343Z,11.73
2019-03-08T08:24:56.211Z,13.32
2019-03-08T08:27:31.313Z,13.18
2019-03-08T08:30:05.186Z,13.25
2019-03-08T08:32:52.826Z,12.98
2019-03-08T08:35:41.555Z,11.50
2019-03-08T08:38:13.482Z,11.97
2019-03-08T08:40:57.281Z,14.28
2019-03-08T08:43:38.195Z,13.03
2019-03-08T08:46:12.518Z,12.60
2019-03-08T08:51:33.494Z,11.95
2019-03-08T08:54:05.491Z,13.72
2019-03-08T08:56:53.383Z,13.85
2019-03-08T08:59:28.557Z,12.43
2019-03-08T09:02:00.690Z,12.30
2019-03-08T09:04:48.962Z,13.48
2019-03-08T09:07:26.808Z,11.28
2019-03-08T09:09:58.827Z,13.03
2019-03-08T09:12:40.873Z,11.65
2019-03-08T09:15:22.251Z,9.75
2019-03-08T09:17:54.018Z,12.05
2019-03-08T09:20:29.032Z,14.33
2019-03-08T09:23:07.282Z,11.30
2019-03-08T09:25:48.430Z,13.18
2019-03-08T09:28:22.709Z,10.30
2019-03-08T09:31:00.694Z,11.88
2019-03-08T09:33:33.012Z,13.15
2019-03-08T09:36:21.631Z,11.50
2019-03-08T09:39:10.004Z,10.08
2019-03-08T09:42:00.703Z,14.10
2019-03-08T09:44:42.059Z,11.05
2019-03-08T09:47:14.395Z,13.10
2019-03-08T09:49:49.659Z,11.97
2019-03-08T09:52:24.639Z,13.22
2019-03-08T09:55:03.010Z,16.30
2019-03-08T09:57:35.734Z,15.80
2019-03-08T10:00:25.560Z,16.17
2019-03-08T10:02:59.690Z,18.27
2019-03-08T10:05:40.725Z,12.63
2019-03-08T10:08:29.957Z,14.20
2019-03-08T10:11:07.960Z,14.00
2019-03-08T10:13:48.945Z,15.30
2019-03-08T10:16:27.441Z,14.55
2019-03-08T10:19:09.023Z,14.95
2019-03-08T10:21:57.506Z,11.85
2019-03-08T10:24:32.334Z,12.40
2019-03-08T10:27:16.310Z,13.10
2019-03-08T10:30:04.867Z,16.10
2019-03-08T10:32:52.746Z,12.65
2019-03-08T10:35:37.556Z,15.18
2019-03-08T10:38:10.051Z,12.80
2019-03-08T10:40:42.423Z,11.93
2019-03-08T10:43:17.664Z,14.60
2019-03-08T10:45:49.972Z,12.50
2019-03-08T10:48:31.591Z,12.00
2019-03-08T10:51:09.249Z,11.75
2019-03-08T10:53:41.002Z,11.90
2019-03-08T10:56:12.930Z,13.08
2019-03-08T10:58:50.558Z,14.10
2019-03-08T11:01:34.258Z,18.15
2019-03-08T11:04:06.189Z,16.05
2019-03-08T11:06:54.035Z,13.98
2019-03-08T11:09:28.854Z,17.20
2019-03-08T11:12:10.261Z,17.17
2019-03-08T11:14:42.171Z,20.52
2019-03-08T11:17:19.714Z,17.80
2019-03-08T11:20:01.179Z,18.95
2019-03-08T11:22:37.394Z,13.75
2019-03-08T11:25:34.551Z,16.77
2019-03-08T11:27:59.414Z,15.38
2019-03-08T11:30:34.500Z,19.82
2019-03-08T11:33:15.838Z,17.40
2019-03-08T11:36:07.101Z,15.48
2019-03-08T11:38:42.510Z,17.55
2019-03-08T11:41:14.628Z,14.13
2019-03-08T11:43:49.548Z,12.65
2019-03-08T11:55:29.231Z,13.90
2019-03-08T11:58:05.402Z,19.73
2019-03-08T12:00:37.479Z,11.93
2019-03-08T12:03:27.741Z,16.07
2019-03-08T12:06:01.069Z,12.75
2019-03-08T12:08:45.619Z,13.93
2019-03-08T12:11:28.190Z,14.93
2019-03-08T12:14:00.307Z,16.48
2019-03-08T12:16:41.486Z,20.15
2019-03-08T12:19:16.735Z,17.07
2019-03-08T12:21:49.502Z,14.98
2019-03-08T12:24:24.739Z,15.15
2019-03-08T12:27:00.117Z,15.88
2019-03-08T12:29:32.194Z,15.28
2019-03-08T12:32:13.345Z,16.87
2019-03-08T12:34:45.176Z,17.12
2019-03-08T12:37:23.818Z,14.75
2019-03-08T12:40:07.851Z,15.13
2019-03-08T12:42:40.205Z,17.10
2019-03-08T12:45:13.457Z,13.53
2019-03-08T12:47:51.318Z,17.23
2019-03-08T12:50:23.074Z,16.87
2019-03-08T12:53:01.279Z,15.13
2019-03-08T12:55:35.286Z,15.63
2019-03-08T12:58:10.221Z,17.40
2019-03-08T13:00:42.080Z,20.72
2019-03-08T13:03:20.174Z,20.35
2019-03-08T13:06:10.473Z,18.17
2019-03-08T13:08:51.318Z,22.35
2019-03-08T13:11:23.120Z,22.22
2019-03-08T13:13:55.469Z,21.57
2019-03-08T14:08:59.986Z,27.75
2019-03-08T14:11:36.960Z,23.65
2019-03-08T14:14:07.727Z,26.75
2019-03-08T14:16:38.415Z,23.40
2019-03-08T14:19:09.688Z,23.10
2019-03-08T14:21:41.550Z,21.93
2019-03-08T14:24:13.222Z,22.17
2019-03-08T14:26:43.646Z,25.40
2019-03-08T14:29:14.228Z,26.52
2019-03-08T14:31:49.314Z,25.05
2019-03-08T14:34:18.824Z,21.07
2019-03-08T14:36:52.260Z,20.82
2019-03-08T14:39:23.839Z,23.85
2019-03-08T14:41:56.772Z,21.20
2019-03-08T14:44:35.741Z,20.75
2019-03-08T14:47:08.060Z,20.25
2019-03-08T14:49:38.852Z,23.92
2019-03-08T14:52:10.494Z,20.97
2019-03-08T14:54:42.435Z,21.52
2019-03-08T14:57:26.349Z,21.90
2019-03-08T14:59:49.305Z,21.95
2019-03-08T15:02:20.285Z,22.35
2019-03-08T15:04:51.536Z,21.23
2019-03-08T15:07:22.387Z,23.75
2019-03-08T15:09:53.127Z,23.65
2019-03-08T15:12:23.793Z,21.87
2019-03-08T15:14:54.764Z,20.92
2019-03-08T15:17:25.569Z,20.70
2019-03-08T15:19:56.153Z,21.65
2019-03-08T15:22:26.951Z,20.55
2019-03-08T15:24:57.683Z,19.75
2019-03-08T15:27:28.278Z,20.52
2019-03-08T15:29:58.696Z,20.60
2019-03-08T15:32:29.473Z,20.25
2019-03-08T15:35:00.372Z,19.60
2019-03-08T15:37:32.281Z,20.27
2019-03-08T15:40:03.221Z,19.98
2019-03-08T15:42:43.935Z,19.37
2019-03-08T15:45:15.275Z,19.87
2019-03-08T15:47:46.374Z,19.05
2019-03-08T15:50:26.420Z,19.25
2019-03-08T15:52:57.167Z,19.23
2019-03-08T15:55:29.035Z,17.25
2019-03-08T15:58:01.513Z,19.62
2019-03-08T16:00:34.336Z,19.17
2019-03-08T16:03:05.160Z,19.75
2019-03-08T16:05:35.837Z,17.87
2019-03-08T16:08:06.622Z,15.93
2019-03-08T16:10:37.222Z,17.55
2019-03-08T16:13:08.133Z,17.98
2019-03-08T16:15:38.809Z,17.12
2019-03-08T16:18:09.530Z,18.27
2019-03-08T16:20:40.722Z,16.40
2019-03-08T16:29:06.082Z,17.70
2019-03-08T16:31:39.387Z,16.75
2019-03-08T16:34:11.186Z,16.52
2019-03-08T16:36:43.865Z,17.02
2019-03-08T16:39:17.998Z,16.15
2019-03-08T16:41:52.696Z,16.30
2019-03-08T16:44:39.599Z,16.42
2019-03-08T16:47:13.779Z,17.15
2019-03-08T16:50:06.448Z,17.32
2019-03-08T16:52:39.662Z,16.77
2019-03-08T16:55:24.644Z,15.72
2019-03-08T16:57:56.818Z,16.55
2019-03-08T17:00:28.798Z,16.32
2019-03-08T17:06:10.756Z,16.45
2019-03-08T17:11:44.327Z,16.30
2019-03-08T17:14:17.583Z,17.60
2019-03-08T17:17:01.502Z,18.95
2019-03-08T17:19:35.693Z,18.02
2019-03-08T17:22:13.849Z,16.40
2019-03-08T17:24:53.832Z,16.37
2019-03-08T17:27:31.990Z,15.75
2019-03-08T17:30:14.167Z,17.57
2019-03-08T17:32:52.050Z,17.32
2019-03-08T17:35:41.494Z,16.97
2019-03-08T17:38:21.077Z,16.65
2019-03-08T17:41:12.475Z,16.25
2019-03-08T17:43:49.628Z,17.05
2019-03-08T17:46:42.089Z,17.48
2019-03-08T17:49:17.776Z,17.05
2019-03-08T18:01:50.561Z,18.77
2019-03-08T18:04:22.483Z,17.40
2019-03-08T18:07:02.587Z,18.10
2019-03-08T18:09:35.867Z,18.65
2019-03-08T18:12:08.159Z,17.57
2019-03-08T18:14:56.640Z,17.75
2019-03-08T18:20:38.037Z,20.55
2019-03-08T18:23:18.782Z,17.80
2019-03-08T18:25:51.239Z,18.12
2019-03-08T18:28:41.455Z,15.93
2019-03-08T18:31:29.948Z,16.42
2019-03-08T18:34:04.769Z,17.62
2019-03-08T18:36:55.423Z,16.95
2019-03-08T18:39:43.517Z,17.92
2019-03-08T18:42:33.449Z,17.10
2019-03-08T18:45:11.394Z,15.60
2019-03-08T18:47:45.714Z,15.93
2019-03-08T18:50:27.509Z,15.48
2019-03-08T18:53:05.765Z,15.32
2019-03-08T18:55:37.588Z,15.55
2019-03-08T18:58:12.295Z,16.25
2019-03-08T19:00:46.982Z,17.90
2019-03-08T19:03:27.050Z,16.67
2019-03-08T19:06:02.958Z,17.15
2019-03-08T19:08:35.263Z,17.67
2019-03-08T19:11:22.095Z,16.57
2019-03-08T19:14:10.933Z,15.80
2019-03-08T19:16:55.290Z,15.68
2019-03-08T19:19:40.145Z,15.15
2019-03-08T19:22:45.542Z,15.50
2019-03-08T19:25:33.846Z,16.77
2019-03-08T19:28:10.024Z,14.03
2019-03-08T19:30:47.549Z,15.45
2019-03-08T19:33:19.607Z,15.08
2019-03-08T19:35:57.129Z,15.72
2019-03-08T19:38:32.148Z,14.07
2019-03-08T19:41:13.234Z,16.75
2019-03-08T19:43:54.466Z,14.63
2019-03-08T19:46:29.881Z,14.68
2019-03-08T19:49:08.148Z,14.28
2019-03-08T19:51:44.488Z,13.70
2019-03-08T19:54:22.378Z,14.23
2019-03-08T19:57:06.362Z,13.72
2019-03-08T19:59:40.638Z,16.80
2019-03-08T20:02:12.953Z,14.65
2019-03-08T20:04:51.048Z,15.60
2019-03-08T20:07:22.969Z,14.58
2019-03-08T20:10:00.463Z,16.15
2019-03-08T20:12:32.509Z,13.95
2019-03-08T20:15:13.717Z,13.58
2019-03-08T20:17:49.562Z,14.30
2019-03-08T20:23:01.657Z,15.08
2019-03-08T20:25:33.858Z,13.50
2019-03-08T20:28:15.144Z,15.08
2019-03-08T20:30:51.778Z,13.22
2019-03-08T20:33:24.206Z,13.60
2019-03-08T20:36:08.541Z,13.00
2019-03-08T20:38:43.913Z,13.98
2019-03-08T20:41:15.985Z,15.95
2019-03-08T20:43:48.013Z,13.25
2019-03-08T20:46:43.582Z,15.90
2019-03-08T20:49:16.180Z,13.62
2019-03-08T20:51:46.975Z,12.98
2019-03-08T20:54:17.964Z,16.07
2019-03-08T20:56:48.684Z,13.60
2019-03-08T20:59:19.242Z,15.13
2019-03-08T21:01:49.977Z,14.93
2019-03-08T21:04:20.368Z,14.70
2019-03-08T21:06:51.335Z,13.90
2019-03-08T21:09:22.310Z,14.78
2019-03-08T21:11:53.122Z,13.22
2019-03-08T21:14:24.047Z,13.75
2019-03-08T21:16:54.707Z,14.78
2019-03-08T21:19:25.418Z,13.08
2019-03-08T21:21:56.166Z,14.45
2019-03-08T21:24:26.878Z,13.18
2019-03-08T21:26:57.496Z,13.25
2019-03-08T21:29:28.286Z,16.48
2019-03-08T21:31:58.838Z,14.47
2019-03-08T21:34:29.497Z,16.93
2019-03-08T21:37:01.579Z,13.48
2019-03-08T21:39:32.258Z,12.35
2019-03-08T21:42:03.159Z,13.95
2019-03-08T21:44:34.197Z,12.58
2019-03-08T21:47:04.852Z,11.97
2019-03-08T21:49:39.269Z,13.32
2019-03-08T21:52:29.550Z,14.55
2019-03-08T21:55:00.787Z,11.88
2019-03-08T21:57:31.427Z,13.08
2019-03-08T22:02:51.547Z,12.35
2019-03-08T22:05:25.065Z,12.45
2019-03-08T22:07:55.893Z,12.10
2019-03-08T22:10:37.111Z,14.10
2019-03-08T22:13:07.997Z,12.35
2019-03-08T22:15:38.926Z,13.20
2019-03-08T22:18:09.666Z,12.07
2019-03-08T22:20:40.744Z,14.05
2019-03-08T22:23:31.851Z,14.63
2019-03-08T22:26:02.999Z,14.83
2019-03-08T22:28:33.767Z,14.00
2019-03-08T22:31:04.698Z,11.95
2019-03-08T22:33:35.644Z,12.63
2019-03-08T22:36:10.089Z,15.43
2019-03-08T22:38:40.957Z,12.07
2019-03-08T22:41:11.335Z,12.65
2019-03-08T22:43:42.050Z,11.75
2019-03-08T22:46:12.606Z,13.43
2019-03-08T22:48:43.792Z,12.35
2019-03-08T22:51:15.766Z,13.95
2019-03-08T22:53:47.228Z,12.75
2019-03-08T22:56:17.960Z,11.63
2019-03-08T22:58:48.515Z,14.85
2019-03-08T23:01:22.042Z,12.45
2019-03-08T23:03:53.651Z,14.05
2019-03-08T23:06:24.283Z,13.28
2019-03-08T23:08:55.036Z,13.83
2019-03-08T23:11:26.260Z,12.28
2019-03-08T23:13:57.322Z,12.03
2019-03-08T23:16:27.907Z,12.03
2019-03-08T23:18:59.134Z,11.73
2019-03-08T23:21:30.191Z,11.53
2019-03-08T23:24:02.855Z,12.88
2019-03-08T23:26:36.434Z,14.18
2019-03-08T23:29:12.335Z,13.68
2019-03-08T23:34:15.210Z,14.65
2019-03-08T23:36:45.763Z,16.73
2019-03-08T23:39:16.246Z,17.82
2019-03-08T23:41:48.112Z,17.02
2019-03-08T23:44:19.216Z,18.67
2019-03-08T23:46:49.601Z,17.37
2019-03-08T23:49:20.286Z,18.90
2019-03-08T23:51:53.303Z,18.37
2019-03-08T23:54:23.699Z,17.85
2019-03-08T23:56:54.407Z,16.42
2019-03-08T23:59:24.955Z,20.17
